sensor_id;sensor_type;location;lat;lon;timestamp;pressure;altitude;pressure_sealevel;temperature;humidity
3812;BME280;1921;49.368;11.068;2022-11-20T00:01:18;97151.38;;;1.53;100.00
3812;BME280;1921;49.368;11.068;2022-11-20T00:03:46;97114.41;;;1.25;100.00
3812;BME280;1921;49.368;11.068;2022-11-20T00:06:17;97129.00;;;1.25;100.00
3812;BME280;1921;49.368;11.068;2022-11-20T00:08:44;97156.63;;;1.52;100.00
3812;BME280;1921;49.368;11.068;2022-11-20T00:11:16;97137.28;;;1.48;100.00
3812;BME280;1921;49.368;11.068;2022-11-20T00:13:43;97134.72;;;1.48;100.00
3812;BME280;1921;49.368;11.068;2022-11-20T00:16:15;97175.22;;;1.84;100.00
3812;BME280;1921;49.368;11.068;2022-11-20T00:18:41;97173.06;;;1.89;100.00
3812;BME280;1921;49.368;11.068;2022-11-20T00:21:23;97150.31;;;1.66;100.00
3812;BME280;1921;49.368;11.068;2022-11-20T00:23:50;97140.84;;;1.66;100.00
3812;BME280;1921;49.368;11.068;2022-11-20T00:26:19;97159.94;;;1.83;100.00
3812;BME280;1921;49.368;11.068;2022-11-20T00:28:51;97135.84;;;1.65;100.00
3812;BME280;1921;49.368;11.068;2022-11-20T00:31:17;97151.00;;;1.77;100.00
3812;BME280;1921;49.368;11.068;2022-11-20T00:33:44;97187.00;;;1.97;100.00
3812;BME280;1921;49.368;11.068;2022-11-20T00:36:22;97153.19;;;1.82;100.00
3812;BME280;1921;49.368;11.068;2022-11-20T00:38:53;97142.75;;;1.83;100.00
3812;BME280;1921;49.368;11.068;2022-11-20T00:41:20;97196.50;;;2.06;100.00
3812;BME280;1921;49.368;11.068;2022-11-20T00:43:45;97165.88;;;1.74;100.00
3812;BME280;1921;49.368;11.068;2022-11-20T00:46:17;97178.78;;;1.93;100.00
3812;BME280;1921;49.368;11.068;2022-11-20T00:48:44;97125.28;;;1.68;100.00
3812;BME280;1921;49.368;11.068;2022-11-20T00:51:14;97165.91;;;1.93;100.00
3812;BME280;1921;49.368;11.068;2022-11-20T00:53:40;97188.38;;;2.10;100.00
3812;BME280;1921;49.368;11.068;2022-11-20T00:56:10;97168.75;;;2.09;100.00
3812;BME280;1921;49.368;11.068;2022-11-20T00:58:39;97177.97;;;2.12;100.00
3812;BME280;1921;49.368;11.068;2022-11-20T01:03:43;97138.72;;;1.81;100.00
3812;BME280;1921;49.368;11.068;2022-11-20T01:06:13;97162.41;;;1.94;100.00
3812;BME280;1921;49.368;11.068;2022-11-20T01:08:39;97152.25;;;1.93;100.00
3812;BME280;1921;49.368;11.068;2022-11-20T01:11:10;97128.81;;;1.76;100.00
3812;BME280;1921;49.368;11.068;2022-11-20T01:13:37;97152.38;;;1.91;100.00
3812;BME280;1921;49.368;11.068;2022-11-20T01:16:28;97177.81;;;2.04;100.00
3812;BME280;1921;49.368;11.068;2022-11-20T01:18:58;97200.03;;;2.14;100.00
3812;BME280;1921;49.368;11.068;2022-11-20T01:21:34;97160.88;;;1.92;100.00
3812;BME280;1921;49.368;11.068;2022-11-20T01:24:01;97148.44;;;1.77;100.00
3812;BME280;1921;49.368;11.068;2022-11-20T01:26:33;97149.34;;;1.67;100.00
3812;BME280;1921;49.368;11.068;2022-11-20T01:29:03;97156.44;;;1.74;100.00
3812;BME280;1921;49.368;11.068;2022-11-20T01:31:36;97170.78;;;1.86;100.00
3812;BME280;1921;49.368;11.068;2022-11-20T01:34:15;97164.81;;;1.86;100.00
3812;BME280;1921;49.368;11.068;2022-11-20T01:36:42;97131.25;;;1.68;100.00
3812;BME280;1921;49.368;11.068;2022-11-20T01:39:21;97163.88;;;1.87;100.00
3812;BME280;1921;49.368;11.068;2022-11-20T01:41:49;97176.88;;;1.95;100.00
3812;BME280;1921;49.368;11.068;2022-11-20T01:44:58;97165.91;;;1.83;100.00
3812;BME280;1921;49.368;11.068;2022-11-20T01:47:34;97185.38;;;1.96;100.00
3812;BME280;1921;49.368;11.068;2022-11-20T01:50:33;97190.00;;;2.02;100.00
3812;BME280;1921;49.368;11.068;2022-11-20T01:53:06;97162.75;;;1.80;100.00
3812;BME280;1921;49.368;11.068;2022-11-20T01:55:50;97043.81;;;1.10;100.00
3812;BME280;1921;49.368;11.068;2022-11-20T01:58:22;97163.31;;;1.83;100.00
3812;BME280;1921;49.368;11.068;2022-11-20T02:00:50;97141.94;;;1.73;100.00
3812;BME280;1921;49.368;11.068;2022-11-20T02:03:17;97142.88;;;1.72;100.00
3812;BME280;1921;49.368;11.068;2022-11-20T02:08:28;97116.91;;;1.66;100.00
3812;BME280;1921;49.368;11.068;2022-11-20T02:10:54;97123.66;;;1.67;100.00
3812;BME280;1921;49.368;11.068;2022-11-20T02:13:19;97129.06;;;1.73;100.00
3812;BME280;1921;49.368;11.068;2022-11-20T02:16:05;97162.13;;;1.87;100.00
3812;BME280;1921;49.368;11.068;2022-11-20T02:18:34;97150.88;;;1.69;100.00
3812;BME280;1921;49.368;11.068;2022-11-20T02:21:14;97112.13;;;1.42;100.00
3812;BME280;1921;49.368;11.068;2022-11-20T02:24:18;97177.28;;;2.00;100.00
3812;BME280;1921;49.368;11.068;2022-11-20T02:27:11;97131.09;;;1.79;100.00
3812;BME280;1921;49.368;11.068;2022-11-20T02:30:01;97092.81;;;1.67;100.00
3812;BME280;1921;49.368;11.068;2022-11-20T02:32:34;97117.47;;;1.88;100.00
3812;BME280;1921;49.368;11.068;2022-11-20T02:37:58;97119.88;;;1.61;100.00
3812;BME280;1921;49.368;11.068;2022-11-20T02:40:24;97142.06;;;1.62;100.00
3812;BME280;1921;49.368;11.068;2022-11-20T02:42:57;97127.47;;;1.63;100.00
3812;BME280;1921;49.368;11.068;2022-11-20T02:45:24;97122.03;;;1.66;100.00
3812;BME280;1921;49.368;11.068;2022-11-20T02:47:50;97131.28;;;1.87;100.00
3812;BME280;1921;49.368;11.068;2022-11-20T02:50:17;97146.28;;;2.02;100.00
3812;BME280;1921;49.368;11.068;2022-11-20T02:52:43;97082.44;;;1.68;100.00
3812;BME280;1921;49.368;11.068;2022-11-20T02:55:09;97083.34;;;1.38;100.00
3812;BME280;1921;49.368;11.068;2022-11-20T02:57:35;97081.41;;;1.21;100.00
3812;BME280;1921;49.368;11.068;2022-11-20T03:00:03;97116.34;;;1.52;100.00
3812;BME280;1921;49.368;11.068;2022-11-20T03:02:32;97121.09;;;1.76;100.00
3812;BME280;1921;49.368;11.068;2022-11-20T03:04:58;97091.19;;;1.66;100.00
3812;BME280;1921;49.368;11.068;2022-11-20T03:07:25;97044.53;;;1.41;100.00
3812;BME280;1921;49.368;11.068;2022-11-20T03:09:50;97128.28;;;1.92;100.00
3812;BME280;1921;49.368;11.068;2022-11-20T03:12:16;97097.41;;;1.73;100.00
3812;BME280;1921;49.368;11.068;2022-11-20T03:14:42;97094.88;;;1.82;100.00
3812;BME280;1921;49.368;11.068;2022-11-20T03:17:08;97100.13;;;1.91;100.00
3812;BME280;1921;49.368;11.068;2022-11-20T03:19:34;97130.19;;;2.00;100.00
3812;BME280;1921;49.368;11.068;2022-11-20T03:22:00;97144.13;;;2.07;100.00
3812;BME280;1921;49.368;11.068;2022-11-20T03:24:26;97101.06;;;1.80;100.00
3812;BME280;1921;49.368;11.068;2022-11-20T03:26:52;97130.31;;;1.88;100.00
3812;BME280;1921;49.368;11.068;2022-11-20T03:29:18;97090.25;;;1.67;100.00
3812;BME280;1921;49.368;11.068;2022-11-20T03:31:44;97131.13;;;1.99;100.00
3812;BME280;1921;49.368;11.068;2022-11-20T03:34:11;97140.47;;;1.90;100.00
3812;BME280;1921;49.368;11.068;2022-11-20T03:36:43;96952.00;;;0.64;100.00
3812;BME280;1921;49.368;11.068;2022-11-20T03:39:09;97100.09;;;1.32;100.00
3812;BME280;1921;49.368;11.068;2022-11-20T03:41:40;97124.16;;;1.31;100.00
3812;BME280;1921;49.368;11.068;2022-11-20T03:44:10;97047.69;;;0.54;100.00
3812;BME280;1921;49.368;11.068;2022-11-20T03:46:36;97010.34;;;0.31;100.00
3812;BME280;1921;49.368;11.068;2022-11-20T03:49:02;97052.38;;;0.80;100.00
3812;BME280;1921;49.368;11.068;2022-11-20T03:51:31;97077.47;;;1.07;100.00
3812;BME280;1921;49.368;11.068;2022-11-20T03:54:00;97122.97;;;1.55;100.00
3812;BME280;1921;49.368;11.068;2022-11-20T03:56:32;97064.00;;;1.24;100.00
3812;BME280;1921;49.368;11.068;2022-11-20T03:58:58;97044.66;;;1.20;100.00
3812;BME280;1921;49.368;11.068;2022-11-20T04:01:36;97063.00;;;1.16;100.00
3812;BME280;1921;49.368;11.068;2022-11-20T04:04:03;96991.53;;;0.51;100.00
3812;BME280;1921;49.368;11.068;2022-11-20T04:06:34;97097.56;;;1.02;100.00
3812;BME280;1921;49.368;11.068;2022-11-20T04:09:00;97045.22;;;0.84;100.00
3812;BME280;1921;49.368;11.068;2022-11-20T04:11:29;97064.06;;;1.03;100.00
3812;BME280;1921;49.368;11.068;2022-11-20T04:14:02;97048.66;;;0.94;100.00
3812;BME280;1921;49.368;11.068;2022-11-20T04:16:33;97126.47;;;1.54;100.00
3812;BME280;1921;49.368;11.068;2022-11-20T04:19:03;97044.72;;;0.90;100.00
3812;BME280;1921;49.368;11.068;2022-11-20T04:21:30;97063.75;;;0.87;100.00
3812;BME280;1921;49.368;11.068;2022-11-20T04:23:56;97063.34;;;0.92;100.00
3812;BME280;1921;49.368;11.068;2022-11-20T04:26:24;97058.91;;;0.94;100.00
3812;BME280;1921;49.368;11.068;2022-11-20T04:28:51;97038.13;;;1.06;100.00
3812;BME280;1921;49.368;11.068;2022-11-20T04:31:25;97087.94;;;1.54;100.00
3812;BME280;1921;49.368;11.068;2022-11-20T04:33:51;97046.69;;;1.46;100.00
3812;BME280;1921;49.368;11.068;2022-11-20T04:36:23;97083.91;;;1.90;100.00
3812;BME280;1921;49.368;11.068;2022-11-20T04:38:58;97091.75;;;2.08;100.00
3812;BME280;1921;49.368;11.068;2022-11-20T04:41:30;97116.63;;;2.27;100.00
3812;BME280;1921;49.368;11.068;2022-11-20T04:43:59;97096.44;;;2.22;100.00
3812;BME280;1921;49.368;11.068;2022-11-20T04:46:29;97121.47;;;2.39;100.00
3812;BME280;1921;49.368;11.068;2022-11-20T04:48:56;97089.00;;;2.29;100.00
3812;BME280;1921;49.368;11.068;2022-11-20T04:51:22;97082.09;;;2.39;100.00
3812;BME280;1921;49.368;11.068;2022-11-20T04:53:48;97075.88;;;2.32;100.00
3812;BME280;1921;49.368;11.068;2022-11-20T04:56:14;97080.72;;;2.35;100.00
3812;BME280;1921;49.368;11.068;2022-11-20T04:58:40;97056.00;;;2.14;100.00
3812;BME280;1921;49.368;11.068;2022-11-20T05:01:15;97076.13;;;2.38;100.00
3812;BME280;1921;49.368;11.068;2022-11-20T05:03:42;97043.00;;;2.16;100.00
3812;BME280;1921;49.368;11.068;2022-11-20T05:06:11;97111.53;;;2.64;100.00
3812;BME280;1921;49.368;11.068;2022-11-20T05:08:37;97071.78;;;2.29;100.00
3812;BME280;1921;49.368;11.068;2022-11-20T05:11:19;97084.78;;;2.37;100.00
3812;BME280;1921;49.368;11.068;2022-11-20T05:13:45;97124.66;;;2.70;100.00
3812;BME280;1921;49.368;11.068;2022-11-20T05:16:17;97101.38;;;2.62;100.00
3812;BME280;1921;49.368;11.068;2022-11-20T05:18:43;97104.38;;;2.67;100.00
3812;BME280;1921;49.368;11.068;2022-11-20T05:21:10;97127.88;;;2.82;100.00
3812;BME280;1921;49.368;11.068;2022-11-20T05:23:36;97091.75;;;2.64;100.00
3812;BME280;1921;49.368;11.068;2022-11-20T05:26:03;97097.00;;;2.73;100.00
3812;BME280;1921;49.368;11.068;2022-11-20T05:28:30;97046.31;;;2.46;100.00
3812;BME280;1921;49.368;11.068;2022-11-20T05:31:08;97074.53;;;2.75;100.00
3812;BME280;1921;49.368;11.068;2022-11-20T05:33:41;97098.44;;;2.94;100.00
3812;BME280;1921;49.368;11.068;2022-11-20T05:36:07;97100.69;;;2.97;100.00
3812;BME280;1921;49.368;11.068;2022-11-20T05:38:34;97052.03;;;2.67;100.00
3812;BME280;1921;49.368;11.068;2022-11-20T05:41:11;97065.88;;;2.66;100.00
3812;BME280;1921;49.368;11.068;2022-11-20T05:43:39;97057.50;;;2.64;100.00
3812;BME280;1921;49.368;11.068;2022-11-20T05:46:08;97080.16;;;2.88;100.00
3812;BME280;1921;49.368;11.068;2022-11-20T05:48:36;97053.63;;;2.78;100.00
3812;BME280;1921;49.368;11.068;2022-11-20T05:51:04;97057.72;;;2.80;100.00
3812;BME280;1921;49.368;11.068;2022-11-20T05:53:32;97092.84;;;2.99;100.00
3812;BME280;1921;49.368;11.068;2022-11-20T05:56:11;97076.09;;;2.85;100.00
3812;BME280;1921;49.368;11.068;2022-11-20T05:58:37;97070.44;;;2.82;100.00
3812;BME280;1921;49.368;11.068;2022-11-20T06:01:27;97032.63;;;2.55;100.00
3812;BME280;1921;49.368;11.068;2022-11-20T06:03:53;97107.06;;;3.03;100.00
3812;BME280;1921;49.368;11.068;2022-11-20T06:06:19;97036.00;;;2.55;100.00
3812;BME280;1921;49.368;11.068;2022-11-20T06:08:45;97086.94;;;2.89;100.00
3812;BME280;1921;49.368;11.068;2022-11-20T06:11:13;97058.94;;;2.76;100.00
3812;BME280;1921;49.368;11.068;2022-11-20T06:13:40;97063.03;;;2.69;100.00
3812;BME280;1921;49.368;11.068;2022-11-20T06:16:06;97060.16;;;2.72;100.00
3812;BME280;1921;49.368;11.068;2022-11-20T06:18:32;97035.84;;;2.57;100.00
3812;BME280;1921;49.368;11.068;2022-11-20T06:21:21;97097.78;;;2.92;100.00
3812;BME280;1921;49.368;11.068;2022-11-20T06:23:49;97044.53;;;2.56;100.00
3812;BME280;1921;49.368;11.068;2022-11-20T06:26:27;97072.38;;;2.70;100.00
3812;BME280;1921;49.368;11.068;2022-11-20T06:28:53;97078.56;;;2.77;100.00
3812;BME280;1921;49.368;11.068;2022-11-20T06:31:23;97096.97;;;2.82;100.00
3812;BME280;1921;49.368;11.068;2022-11-20T06:33:50;97068.69;;;2.73;100.00
3812;BME280;1921;49.368;11.068;2022-11-20T06:36:19;97066.03;;;2.64;100.00
3812;BME280;1921;49.368;11.068;2022-11-20T06:38:45;97082.06;;;2.86;100.00
3812;BME280;1921;49.368;11.068;2022-11-20T06:41:21;97070.84;;;2.77;100.00
3812;BME280;1921;49.368;11.068;2022-11-20T06:43:48;97047.03;;;2.65;100.00
3812;BME280;1921;49.368;11.068;2022-11-20T06:46:16;97097.88;;;2.91;100.00
3812;BME280;1921;49.368;11.068;2022-11-20T06:48:47;97043.72;;;2.55;100.00
3812;BME280;1921;49.368;11.068;2022-11-20T06:51:13;97062.06;;;2.70;100.00
3812;BME280;1921;49.368;11.068;2022-11-20T06:53:39;97102.91;;;2.92;100.00
3812;BME280;1921;49.368;11.068;2022-11-20T06:56:06;97081.69;;;2.81;100.00
3812;BME280;1921;49.368;11.068;2022-11-20T06:58:33;97097.56;;;2.76;100.00
3812;BME280;1921;49.368;11.068;2022-11-20T07:01:01;97078.06;;;2.74;100.00
3812;BME280;1921;49.368;11.068;2022-11-20T07:03:27;97111.00;;;2.97;100.00
3812;BME280;1921;49.368;11.068;2022-11-20T07:05:55;97102.13;;;2.82;100.00
3812;BME280;1921;49.368;11.068;2022-11-20T07:08:22;97087.81;;;2.70;100.00
3812;BME280;1921;49.368;11.068;2022-11-20T07:10:47;97098.69;;;2.91;100.00
3812;BME280;1921;49.368;11.068;2022-11-20T07:13:14;97081.00;;;2.79;100.00
3812;BME280;1921;49.368;11.068;2022-11-20T07:15:39;96988.31;;;2.24;100.00
3812;BME280;1921;49.368;11.068;2022-11-20T07:18:05;97068.25;;;2.50;100.00
3812;BME280;1921;49.368;11.068;2022-11-20T07:20:31;97080.50;;;2.65;100.00
3812;BME280;1921;49.368;11.068;2022-11-20T07:22:57;97082.94;;;2.67;100.00
3812;BME280;1921;49.368;11.068;2022-11-20T07:25:27;97124.97;;;2.67;100.00
3812;BME280;1921;49.368;11.068;2022-11-20T07:27:57;97111.94;;;2.69;100.00
3812;BME280;1921;49.368;11.068;2022-11-20T07:30:23;97052.31;;;2.36;100.00
3812;BME280;1921;49.368;11.068;2022-11-20T07:32:54;97070.16;;;2.38;100.00
3812;BME280;1921;49.368;11.068;2022-11-20T07:35:20;97116.03;;;2.52;100.00
3812;BME280;1921;49.368;11.068;2022-11-20T07:37:47;97094.75;;;2.60;100.00
3812;BME280;1921;49.368;11.068;2022-11-20T07:40:14;96987.97;;;1.80;100.00
3812;BME280;1921;49.368;11.068;2022-11-20T07:42:51;97078.00;;;2.83;100.00
3812;BME280;1921;49.368;11.068;2022-11-20T07:45:20;97082.31;;;2.92;100.00
3812;BME280;1921;49.368;11.068;2022-11-20T07:47:46;97093.75;;;3.08;100.00
3812;BME280;1921;49.368;11.068;2022-11-20T07:50:12;97075.50;;;3.01;100.00
3812;BME280;1921;49.368;11.068;2022-11-20T07:52:39;97110.97;;;3.35;100.00
3812;BME280;1921;49.368;11.068;2022-11-20T07:55:05;97087.75;;;3.17;100.00
3812;BME280;1921;49.368;11.068;2022-11-20T07:57:31;97112.03;;;3.42;100.00
3812;BME280;1921;49.368;11.068;2022-11-20T07:59:57;97128.31;;;3.60;100.00
3812;BME280;1921;49.368;11.068;2022-11-20T08:02:23;97100.19;;;3.49;100.00
3812;BME280;1921;49.368;11.068;2022-11-20T08:04:49;97138.00;;;3.76;100.00
3812;BME280;1921;49.368;11.068;2022-11-20T08:07:14;97121.88;;;3.74;100.00
3812;BME280;1921;49.368;11.068;2022-11-20T08:09:40;97036.34;;;3.15;100.00
3812;BME280;1921;49.368;11.068;2022-11-20T08:12:06;97096.94;;;3.65;100.00
3812;BME280;1921;49.368;11.068;2022-11-20T08:14:50;97014.06;;;3.06;100.00
3812;BME280;1921;49.368;11.068;2022-11-20T08:17:16;97081.78;;;3.62;100.00
3812;BME280;1921;49.368;11.068;2022-11-20T08:19:42;97078.06;;;3.46;100.00
3812;BME280;1921;49.368;11.068;2022-11-20T08:22:07;97110.38;;;3.68;100.00
3812;BME280;1921;49.368;11.068;2022-11-20T08:24:33;97100.09;;;3.59;100.00
3812;BME280;1921;49.368;11.068;2022-11-20T08:26:59;97094.94;;;3.59;100.00
3812;BME280;1921;49.368;11.068;2022-11-20T08:29:28;97075.81;;;3.43;100.00
3812;BME280;1921;49.368;11.068;2022-11-20T08:31:54;97111.09;;;3.61;100.00
3812;BME280;1921;49.368;11.068;2022-11-20T08:34:19;97102.84;;;3.57;100.00
3812;BME280;1921;49.368;11.068;2022-11-20T08:36:45;97109.84;;;3.65;100.00
3812;BME280;1921;49.368;11.068;2022-11-20T08:39:12;97097.97;;;3.72;100.00
3812;BME280;1921;49.368;11.068;2022-11-20T08:41:38;97080.00;;;3.80;100.00
3812;BME280;1921;49.368;11.068;2022-11-20T08:44:06;97106.03;;;4.04;100.00
3812;BME280;1921;49.368;11.068;2022-11-20T08:46:38;97109.41;;;4.23;100.00
3812;BME280;1921;49.368;11.068;2022-11-20T08:49:06;97098.47;;;4.29;100.00
3812;BME280;1921;49.368;11.068;2022-11-20T08:51:33;97064.34;;;4.17;100.00
3812;BME280;1921;49.368;11.068;2022-11-20T08:53:58;97059.81;;;4.37;100.00
3812;BME280;1921;49.368;11.068;2022-11-20T08:56:24;97106.44;;;4.62;100.00
3812;BME280;1921;49.368;11.068;2022-11-20T08:58:51;97028.97;;;4.10;100.00
3812;BME280;1921;49.368;11.068;2022-11-20T09:01:21;97048.66;;;4.37;100.00
3812;BME280;1921;49.368;11.068;2022-11-20T09:03:47;97084.56;;;4.48;100.00
3812;BME280;1921;49.368;11.068;2022-11-20T09:06:13;97106.09;;;4.65;100.00
3812;BME280;1921;49.368;11.068;2022-11-20T09:08:39;97121.69;;;4.73;100.00
3812;BME280;1921;49.368;11.068;2022-11-20T09:11:05;97094.94;;;4.56;100.00
3812;BME280;1921;49.368;11.068;2022-11-20T09:13:33;97104.13;;;4.58;100.00
3812;BME280;1921;49.368;11.068;2022-11-20T09:16:06;97084.91;;;4.53;100.00
3812;BME280;1921;49.368;11.068;2022-11-20T09:18:33;97086.53;;;4.54;100.00
3812;BME280;1921;49.368;11.068;2022-11-20T09:21:08;97094.41;;;4.52;100.00
3812;BME280;1921;49.368;11.068;2022-11-20T09:23:36;97018.63;;;4.10;100.00
3812;BME280;1921;49.368;11.068;2022-11-20T09:26:12;97095.66;;;4.66;100.00
3812;BME280;1921;49.368;11.068;2022-11-20T09:28:39;97037.22;;;4.39;100.00
3812;BME280;1921;49.368;11.068;2022-11-20T09:31:13;97023.97;;;4.34;100.00
3812;BME280;1921;49.368;11.068;2022-11-20T09:33:43;96967.19;;;4.08;100.00
3812;BME280;1921;49.368;11.068;2022-11-20T09:36:08;97009.28;;;4.61;100.00
3812;BME280;1921;49.368;11.068;2022-11-20T09:38:34;97020.97;;;4.81;100.00
3812;BME280;1921;49.368;11.068;2022-11-20T09:41:06;97080.06;;;5.26;100.00
3812;BME280;1921;49.368;11.068;2022-11-20T09:48:17;97119.91;;;5.58;100.00
3812;BME280;1921;49.368;11.068;2022-11-20T09:53:44;97117.69;;;5.71;100.00
3812;BME280;1921;49.368;11.068;2022-11-20T09:56:11;97085.53;;;5.65;100.00
3812;BME280;1921;49.368;11.068;2022-11-20T09:58:48;97056.41;;;5.63;100.00
3812;BME280;1921;49.368;11.068;2022-11-20T10:01:19;97100.78;;;5.93;100.00
3812;BME280;1921;49.368;11.068;2022-11-20T10:04:18;97073.28;;;5.92;100.00
3812;BME280;1921;49.368;11.068;2022-11-20T10:07:07;97109.03;;;6.29;100.00
3812;BME280;1921;49.368;11.068;2022-11-20T10:09:40;96986.41;;;5.57;100.00
3812;BME280;1921;49.368;11.068;2022-11-20T10:12:24;97106.75;;;6.42;100.00
3812;BME280;1921;49.368;11.068;2022-11-20T10:15:13;97102.22;;;6.44;100.00
3812;BME280;1921;49.368;11.068;2022-11-20T10:30:17;97055.16;;;6.25;100.00
3812;BME280;1921;49.368;11.068;2022-11-20T10:32:54;97050.94;;;6.07;100.00
3812;BME280;1921;49.368;11.068;2022-11-20T10:38:00;97061.94;;;6.26;100.00
3812;BME280;1921;49.368;11.068;2022-11-20T10:40:42;97055.13;;;6.33;100.00
3812;BME280;1921;49.368;11.068;2022-11-20T10:43:35;97084.25;;;6.59;100.00
3812;BME280;1921;49.368;11.068;2022-11-20T10:46:10;97018.59;;;6.28;100.00
3812;BME280;1921;49.368;11.068;2022-11-20T10:48:43;97054.81;;;6.52;100.00
3812;BME280;1921;49.368;11.068;2022-11-20T10:51:43;97034.22;;;6.59;100.00
3812;BME280;1921;49.368;11.068;2022-11-20T10:54:46;97000.19;;;6.62;100.00
3812;BME280;1921;49.368;11.068;2022-11-20T11:00:21;97040.78;;;7.17;100.00
3812;BME280;1921;49.368;11.068;2022-11-20T11:02:51;97040.31;;;7.13;100.00
3812;BME280;1921;49.368;11.068;2022-11-20T11:05:42;97074.13;;;7.59;100.00
3812;BME280;1921;49.368;11.068;2022-11-20T11:08:14;97037.78;;;7.36;100.00
3812;BME280;1921;49.368;11.068;2022-11-20T11:11:02;97035.44;;;7.18;100.00
3812;BME280;1921;49.368;11.068;2022-11-20T11:13:33;97051.28;;;7.54;100.00
3812;BME280;1921;49.368;11.068;2022-11-20T11:15:59;97020.22;;;7.46;100.00
3812;BME280;1921;49.368;11.068;2022-11-20T11:18:31;97058.31;;;7.92;100.00
3812;BME280;1921;49.368;11.068;2022-11-20T11:21:03;97043.22;;;7.72;100.00
3812;BME280;1921;49.368;11.068;2022-11-20T11:23:39;96989.13;;;7.38;100.00
3812;BME280;1921;49.368;11.068;2022-11-20T11:26:22;97029.16;;;7.90;100.00
3812;BME280;1921;49.368;11.068;2022-11-20T11:28:59;97008.28;;;7.83;100.00
3812;BME280;1921;49.368;11.068;2022-11-20T11:31:28;97029.66;;;7.85;100.00
3812;BME280;1921;49.368;11.068;2022-11-20T11:34:24;97018.47;;;7.62;100.00
3812;BME280;1921;49.368;11.068;2022-11-20T11:36:58;97066.47;;;7.35;100.00
3812;BME280;1921;49.368;11.068;2022-11-20T11:39:27;97098.16;;;6.58;100.00
3812;BME280;1921;49.368;11.068;2022-11-20T11:41:54;97102.66;;;5.75;100.00
3812;BME280;1921;49.368;11.068;2022-11-20T11:44:28;97073.47;;;5.40;100.00
3812;BME280;1921;49.368;11.068;2022-11-20T11:47:31;97075.34;;;5.13;100.00
3812;BME280;1921;49.368;11.068;2022-11-20T11:52:45;97054.75;;;4.88;100.00
3812;BME280;1921;49.368;11.068;2022-11-20T11:55:35;97082.44;;;5.03;100.00
3812;BME280;1921;49.368;11.068;2022-11-20T11:58:44;97088.09;;;5.15;100.00
3812;BME280;1921;49.368;11.068;2022-11-20T12:04:27;97062.41;;;5.05;100.00
3812;BME280;1921;49.368;11.068;2022-11-20T12:07:22;97053.50;;;5.00;100.00
3812;BME280;1921;49.368;11.068;2022-11-20T12:09:53;97090.59;;;5.33;100.00
3812;BME280;1921;49.368;11.068;2022-11-20T12:12:27;97021.84;;;4.98;100.00
3812;BME280;1921;49.368;11.068;2022-11-20T12:14:56;97072.03;;;5.46;100.00
3812;BME280;1921;49.368;11.068;2022-11-20T12:17:23;97049.09;;;5.34;100.00
3812;BME280;1921;49.368;11.068;2022-11-20T12:19:49;97054.75;;;5.38;100.00
3812;BME280;1921;49.368;11.068;2022-11-20T12:25:20;97084.22;;;5.70;100.00
3812;BME280;1921;49.368;11.068;2022-11-20T12:28:23;97044.22;;;5.23;100.00
3812;BME280;1921;49.368;11.068;2022-11-20T12:40:43;97054.31;;;5.08;100.00
3812;BME280;1921;49.368;11.068;2022-11-20T12:43:26;97064.78;;;5.49;100.00
3812;BME280;1921;49.368;11.068;2022-11-20T12:46:42;97078.44;;;5.84;100.00
3812;BME280;1921;49.368;11.068;2022-11-20T12:49:36;97066.00;;;5.96;100.00
3812;BME280;1921;49.368;11.068;2022-11-20T12:52:37;97067.47;;;6.06;100.00
3812;BME280;1921;49.368;11.068;2022-11-20T13:01:00;97056.28;;;6.22;100.00
3812;BME280;1921;49.368;11.068;2022-11-20T13:03:44;96991.28;;;6.01;100.00
3812;BME280;1921;49.368;11.068;2022-11-20T13:06:18;97040.56;;;6.40;100.00
3812;BME280;1921;49.368;11.068;2022-11-20T13:08:53;97035.75;;;6.29;100.00
3812;BME280;1921;49.368;11.068;2022-11-20T13:11:43;96983.97;;;5.88;100.00
3812;BME280;1921;49.368;11.068;2022-11-20T13:14:24;97056.59;;;6.43;100.00
3812;BME280;1921;49.368;11.068;2022-11-20T13:19:41;97016.84;;;6.04;100.00
3812;BME280;1921;49.368;11.068;2022-11-20T13:22:08;97006.16;;;5.90;100.00
3812;BME280;1921;49.368;11.068;2022-11-20T13:24:34;97053.88;;;6.12;100.00
3812;BME280;1921;49.368;11.068;2022-11-20T13:29:46;97062.25;;;6.14;100.00
3812;BME280;1921;49.368;11.068;2022-11-20T13:32:18;97069.25;;;6.22;100.00
3812;BME280;1921;49.368;11.068;2022-11-20T13:35:03;97017.63;;;5.96;100.00
3812;BME280;1921;49.368;11.068;2022-11-20T13:37:37;97039.78;;;6.23;100.00
3812;BME280;1921;49.368;11.068;2022-11-20T13:45:59;97040.59;;;6.24;100.00
3812;BME280;1921;49.368;11.068;2022-11-20T13:51:58;96989.78;;;5.82;100.00
3812;BME280;1921;49.368;11.068;2022-11-20T13:54:50;97061.94;;;6.26;100.00
3812;BME280;1921;49.368;11.068;2022-11-20T13:57:38;97026.53;;;5.93;100.00
3812;BME280;1921;49.368;11.068;2022-11-20T14:00:19;97064.88;;;6.23;100.00
3812;BME280;1921;49.368;11.068;2022-11-20T14:03:29;97059.19;;;5.78;100.00
3812;BME280;1921;49.368;11.068;2022-11-20T14:06:01;97013.38;;;5.38;100.00
3812;BME280;1921;49.368;11.068;2022-11-20T14:08:45;97024.53;;;5.38;100.00
3812;BME280;1921;49.368;11.068;2022-11-20T14:11:28;96991.53;;;5.24;100.00
3812;BME280;1921;49.368;11.068;2022-11-20T14:14:05;96953.25;;;5.03;100.00
3812;BME280;1921;49.368;11.068;2022-11-20T14:16:38;97017.75;;;5.46;100.00
3812;BME280;1921;49.368;11.068;2022-11-20T14:19:27;97024.34;;;5.32;100.00
3812;BME280;1921;49.368;11.068;2022-11-20T14:24:35;97035.53;;;5.40;100.00
3812;BME280;1921;49.368;11.068;2022-11-20T14:27:01;97021.59;;;5.25;100.00
3812;BME280;1921;49.368;11.068;2022-11-20T14:29:33;97032.09;;;5.32;100.00
3812;BME280;1921;49.368;11.068;2022-11-20T14:32:01;97040.88;;;5.55;100.00
3812;BME280;1921;49.368;11.068;2022-11-20T14:34:31;96997.69;;;5.31;100.00
3812;BME280;1921;49.368;11.068;2022-11-20T14:37:00;97013.59;;;5.02;100.00
3812;BME280;1921;49.368;11.068;2022-11-20T14:39:41;97020.94;;;5.23;100.00
3812;BME280;1921;49.368;11.068;2022-11-20T14:44:44;97017.41;;;5.32;100.00
3812;BME280;1921;49.368;11.068;2022-11-20T14:47:13;97016.59;;;5.32;100.00
3812;BME280;1921;49.368;11.068;2022-11-20T14:49:41;97026.94;;;5.40;100.00
3812;BME280;1921;49.368;11.068;2022-11-20T14:52:18;97039.22;;;5.46;100.00
3812;BME280;1921;49.368;11.068;2022-11-20T14:54:57;97058.03;;;5.73;100.00